sensor_id;sensor_type;location;lat;lon;timestamp;pressure;altitude;pressure_sealevel;temperature;humidity
75072;BME280;63651;55.728;38.022;2023-04-15T00:02:37;100630.72;;;15.59;19.49
75072;BME280;63651;55.728;38.022;2023-04-15T00:07:38;100643.19;;;15.61;19.61
75072;BME280;63651;55.728;38.022;2023-04-15T00:12:40;100653.09;;;15.62;19.44
75072;BME280;63651;55.728;38.022;2023-04-15T00:17:41;100657.66;;;15.55;19.62
75072;BME280;63651;55.728;38.022;2023-04-15T00:22:42;100661.25;;;15.56;19.67
75072;BME280;63651;55.728;38.022;2023-04-15T00:27:43;100665.66;;;15.50;19.26
75072;BME280;63651;55.728;38.022;2023-04-15T00:32:44;100675.13;;;15.54;19.81
75072;BME280;63651;55.728;38.022;2023-04-15T00:37:46;100649.44;;;15.35;19.66
75072;BME280;63651;55.728;38.022;2023-04-15T00:42:47;100678.50;;;15.50;19.51
75072;BME280;63651;55.728;38.022;2023-04-15T00:47:48;100688.81;;;15.48;19.47
75072;BME280;63651;55.728;38.022;2023-04-15T00:52:50;100689.44;;;15.36;19.65
75072;BME280;63651;55.728;38.022;2023-04-15T00:57:52;100710.72;;;15.41;19.40
75072;BME280;63651;55.728;38.022;2023-04-15T01:02:53;100710.94;;;15.40;19.47
75072;BME280;63651;55.728;38.022;2023-04-15T01:07:54;100718.28;;;15.32;19.54
75072;BME280;63651;55.728;38.022;2023-04-15T01:12:55;100715.13;;;15.35;19.41
75072;BME280;63651;55.728;38.022;2023-04-15T01:17:59;100727.16;;;15.34;19.83
75072;BME280;63651;55.728;38.022;2023-04-15T01:23:02;100729.03;;;15.34;19.39
75072;BME280;63651;55.728;38.022;2023-04-15T01:28:04;100730.91;;;15.27;19.79
75072;BME280;63651;55.728;38.022;2023-04-15T01:33:05;100742.06;;;15.25;19.74
75072;BME280;63651;55.728;38.022;2023-04-15T01:38:07;100718.44;;;15.04;19.40
75072;BME280;63651;55.728;38.022;2023-04-15T01:43:09;100750.91;;;15.21;19.48
75072;BME280;63651;55.728;38.022;2023-04-15T01:48:10;100742.47;;;15.16;19.82
75072;BME280;63651;55.728;38.022;2023-04-15T01:53:11;100748.38;;;15.19;19.91
75072;BME280;63651;55.728;38.022;2023-04-15T01:58:12;100752.78;;;15.14;19.72
75072;BME280;63651;55.728;38.022;2023-04-15T02:03:13;100748.34;;;15.06;19.78
75072;BME280;63651;55.728;38.022;2023-04-15T02:08:14;100763.31;;;15.17;20.26
75072;BME280;63651;55.728;38.022;2023-04-15T02:13:15;100759.31;;;15.13;19.99
75072;BME280;63651;55.728;38.022;2023-04-15T02:18:16;100766.84;;;15.04;19.95
75072;BME280;63651;55.728;38.022;2023-04-15T02:23:17;100770.03;;;15.08;19.78
75072;BME280;63651;55.728;38.022;2023-04-15T02:28:18;100772.75;;;15.08;19.45
75072;BME280;63651;55.728;38.022;2023-04-15T02:33:20;100789.81;;;15.10;19.78
75072;BME280;63651;55.728;38.022;2023-04-15T02:38:21;100793.41;;;15.10;19.75
75072;BME280;63651;55.728;38.022;2023-04-15T02:43:22;100805.84;;;15.13;19.95
75072;BME280;63651;55.728;38.022;2023-04-15T02:48:23;100818.66;;;15.12;19.57
75072;BME280;63651;55.728;38.022;2023-04-15T02:53:24;100823.09;;;15.13;19.32
75072;BME280;63651;55.728;38.022;2023-04-15T02:58:26;100822.06;;;15.21;19.29
75072;BME280;63651;55.728;38.022;2023-04-15T03:03:27;100831.13;;;15.21;19.18
75072;BME280;63651;55.728;38.022;2023-04-15T03:08:28;100840.41;;;15.20;19.22
75072;BME280;63651;55.728;38.022;2023-04-15T03:13:29;100811.91;;;15.08;19.57
75072;BME280;63651;55.728;38.022;2023-04-15T03:18:30;100848.00;;;15.25;19.35
75072;BME280;63651;55.728;38.022;2023-04-15T03:23:31;100851.59;;;15.32;19.51
75072;BME280;63651;55.728;38.022;2023-04-15T03:28:33;100845.69;;;15.28;19.49
75072;BME280;63651;55.728;38.022;2023-04-15T03:33:34;100863.66;;;15.44;19.25
75072;BME280;63651;55.728;38.022;2023-04-15T03:38:35;100854.81;;;15.49;18.92
75072;BME280;63651;55.728;38.022;2023-04-15T03:43:36;100865.22;;;15.60;19.23
75072;BME280;63651;55.728;38.022;2023-04-15T03:48:37;100873.47;;;15.66;18.85
75072;BME280;63651;55.728;38.022;2023-04-15T03:53:38;100877.09;;;15.74;18.98
75072;BME280;63651;55.728;38.022;2023-04-15T03:58:39;100887.63;;;15.77;19.03
75072;BME280;63651;55.728;38.022;2023-04-15T04:03:40;100883.22;;;15.82;18.80
75072;BME280;63651;55.728;38.022;2023-04-15T04:08:41;100896.50;;;15.85;18.75
75072;BME280;63651;55.728;38.022;2023-04-15T04:13:42;100890.00;;;15.93;19.01
75072;BME280;63651;55.728;38.022;2023-04-15T04:18:43;100893.16;;;15.96;18.68
75072;BME280;63651;55.728;38.022;2023-04-15T04:23:44;100903.09;;;16.11;18.55
75072;BME280;63651;55.728;38.022;2023-04-15T04:28:45;100893.59;;;16.13;18.41
75072;BME280;63651;55.728;38.022;2023-04-15T04:33:46;100894.03;;;16.17;18.47
75072;BME280;63651;55.728;38.022;2023-04-15T04:38:47;100905.22;;;16.35;18.22
75072;BME280;63651;55.728;38.022;2023-04-15T04:43:48;100901.44;;;16.36;17.99
75072;BME280;63651;55.728;38.022;2023-04-15T04:48:49;100903.34;;;16.49;18.03
75072;BME280;63651;55.728;38.022;2023-04-15T04:53:50;100899.31;;;16.58;17.62
75072;BME280;63651;55.728;38.022;2023-04-15T04:58:51;100895.94;;;16.62;18.17
75072;BME280;63651;55.728;38.022;2023-04-15T05:03:52;100890.25;;;16.64;17.94
75072;BME280;63651;55.728;38.022;2023-04-15T05:08:54;100901.44;;;16.76;17.91
75072;BME280;63651;55.728;38.022;2023-04-15T05:13:56;100902.94;;;16.91;18.08
75072;BME280;63651;55.728;38.022;2023-04-15T05:18:58;100887.31;;;16.72;17.60
75072;BME280;63651;55.728;38.022;2023-04-15T05:23:58;100908.00;;;17.01;17.71
75072;BME280;63651;55.728;38.022;2023-04-15T05:29:00;100909.03;;;17.07;17.67
75072;BME280;63651;55.728;38.022;2023-04-15T05:34:01;100899.75;;;17.01;17.58
75072;BME280;63651;55.728;38.022;2023-04-15T05:39:03;100918.31;;;17.12;17.65
75072;BME280;63651;55.728;38.022;2023-04-15T05:44:04;100911.72;;;17.26;17.40
75072;BME280;63651;55.728;38.022;2023-04-15T05:49:05;100924.59;;;17.33;17.78
75072;BME280;63651;55.728;38.022;2023-04-15T05:54:07;100928.19;;;17.33;17.50
75072;BME280;63651;55.728;38.022;2023-04-15T05:59:08;100935.16;;;17.36;17.43
75072;BME280;63651;55.728;38.022;2023-04-15T06:04:09;100939.31;;;17.51;17.09
75072;BME280;63651;55.728;38.022;2023-04-15T06:09:11;100944.16;;;17.56;17.45
75072;BME280;63651;55.728;38.022;2023-04-15T06:14:12;100941.19;;;17.71;17.23
75072;BME280;63651;55.728;38.022;2023-04-15T06:19:13;100932.53;;;17.67;17.13
75072;BME280;63651;55.728;38.022;2023-04-15T06:24:14;100939.28;;;17.65;17.48
75072;BME280;63651;55.728;38.022;2023-04-15T06:29:15;100945.00;;;17.70;16.94
75072;BME280;63651;55.728;38.022;2023-04-15T06:34:16;100950.03;;;17.79;17.30
75072;BME280;63651;55.728;38.022;2023-04-15T06:39:17;100933.75;;;17.78;16.61
75072;BME280;63651;55.728;38.022;2023-04-15T06:44:19;100944.69;;;17.91;16.85
75072;BME280;63651;55.728;38.022;2023-04-15T06:49:20;100951.19;;;17.97;16.72
75072;BME280;63651;55.728;38.022;2023-04-15T06:54:21;100946.94;;;18.01;16.95
75072;BME280;63651;55.728;38.022;2023-04-15T06:59:22;100958.09;;;18.12;16.89
75072;BME280;63651;55.728;38.022;2023-04-15T07:04:23;100937.63;;;18.02;16.27
75072;BME280;63651;55.728;38.022;2023-04-15T07:09:25;100956.16;;;18.19;17.06
75072;BME280;63651;55.728;38.022;2023-04-15T07:14:29;100956.13;;;18.26;16.47
75072;BME280;63651;55.728;38.022;2023-04-15T07:19:30;100960.66;;;18.45;17.38
75072;BME280;63651;55.728;38.022;2023-04-15T07:24:31;100958.53;;;18.47;18.02
75072;BME280;63651;55.728;38.022;2023-04-15T07:29:32;100964.47;;;18.44;18.63
75072;BME280;63651;55.728;38.022;2023-04-15T07:34:33;100953.03;;;18.47;18.12
75072;BME280;63651;55.728;38.022;2023-04-15T07:39:34;100956.00;;;18.46;18.11
75072;BME280;63651;55.728;38.022;2023-04-15T07:44:35;100954.50;;;18.50;18.12
75072;BME280;63651;55.728;38.022;2023-04-15T07:49:36;100956.44;;;18.43;18.01
75072;BME280;63651;55.728;38.022;2023-04-15T07:54:40;100925.00;;;18.32;18.11
75072;BME280;63651;55.728;38.022;2023-04-15T07:59:41;100947.31;;;18.49;18.17
75072;BME280;63651;55.728;38.022;2023-04-15T08:04:42;100943.72;;;18.48;17.76
75072;BME280;63651;55.728;38.022;2023-04-15T08:09:43;100946.25;;;18.50;18.16
75072;BME280;63651;55.728;38.022;2023-04-15T08:14:46;100945.56;;;18.54;17.90
75072;BME280;63651;55.728;38.022;2023-04-15T08:19:48;100956.34;;;18.56;18.31
75072;BME280;63651;55.728;38.022;2023-04-15T08:24:49;100937.75;;;18.51;18.23
75072;BME280;63651;55.728;38.022;2023-04-15T08:29:50;100935.06;;;18.45;18.31
75072;BME280;63651;55.728;38.022;2023-04-15T08:34:51;100932.94;;;18.47;18.34
75072;BME280;63651;55.728;38.022;2023-04-15T08:39:53;100937.47;;;18.60;18.17
75072;BME280;63651;55.728;38.022;2023-04-15T08:44:54;100918.22;;;18.60;18.44
75072;BME280;63651;55.728;38.022;2023-04-15T08:49:57;100881.19;;;18.31;18.30
75072;BME280;63651;55.728;38.022;2023-04-15T08:54:59;100920.31;;;18.64;18.41
75072;BME280;63651;55.728;38.022;2023-04-15T09:00:02;100929.66;;;18.63;18.24
75072;BME280;63651;55.728;38.022;2023-04-15T09:05:04;100921.41;;;18.57;18.24
75072;BME280;63651;55.728;38.022;2023-04-15T09:10:09;100911.25;;;18.57;17.84
75072;BME280;63651;55.728;38.022;2023-04-15T09:15:10;100914.19;;;18.62;17.95
75072;BME280;63651;55.728;38.022;2023-04-15T09:20:14;100912.91;;;18.65;17.58
75072;BME280;63651;55.728;38.022;2023-04-15T09:30:24;100918.91;;;18.80;17.63
75072;BME280;63651;55.728;38.022;2023-04-15T09:35:26;100912.06;;;18.89;17.84
75072;BME280;63651;55.728;38.022;2023-04-15T09:40:38;100908.91;;;18.85;17.66
75072;BME280;63651;55.728;38.022;2023-04-15T09:45:49;100893.69;;;18.83;17.93
75072;BME280;63651;55.728;38.022;2023-04-15T09:50:50;100912.31;;;19.06;18.10
75072;BME280;63651;55.728;38.022;2023-04-15T09:55:56;100916.66;;;19.13;18.27
75072;BME280;63651;55.728;38.022;2023-04-15T10:00:58;100918.22;;;19.28;18.59
75072;BME280;63651;55.728;38.022;2023-04-15T10:06:00;100909.72;;;19.29;17.72
75072;BME280;63651;55.728;38.022;2023-04-15T10:11:02;100910.09;;;19.33;18.23
75072;BME280;63651;55.728;38.022;2023-04-15T10:16:19;100914.22;;;19.42;18.25
75072;BME280;63651;55.728;38.022;2023-04-15T10:21:21;100913.53;;;19.53;17.96
75072;BME280;63651;55.728;38.022;2023-04-15T10:26:23;100906.91;;;19.72;18.40
75072;BME280;63651;55.728;38.022;2023-04-15T10:31:25;100916.16;;;19.78;18.83
75072;BME280;63651;55.728;38.022;2023-04-15T10:36:26;100903.00;;;19.80;19.57
75072;BME280;63651;55.728;38.022;2023-04-15T10:41:28;100902.66;;;19.88;20.03
75072;BME280;63651;55.728;38.022;2023-04-15T10:46:35;100904.03;;;19.97;20.42
75072;BME280;63651;55.728;38.022;2023-04-15T10:51:50;100899.13;;;19.99;20.21
75072;BME280;63651;55.728;38.022;2023-04-15T10:57:05;100898.53;;;20.09;20.07
75072;BME280;63651;55.728;38.022;2023-04-15T11:02:07;100871.56;;;20.11;19.41
75072;BME280;63651;55.728;38.022;2023-04-15T11:07:08;100899.56;;;20.26;19.17
75072;BME280;63651;55.728;38.022;2023-04-15T11:12:09;100872.66;;;20.22;19.40
75072;BME280;63651;55.728;38.022;2023-04-15T11:17:10;100892.00;;;20.33;19.38
75072;BME280;63651;55.728;38.022;2023-04-15T11:22:12;100892.06;;;20.45;18.90
75072;BME280;63651;55.728;38.022;2023-04-15T11:27:21;100889.06;;;20.47;19.16
75072;BME280;63651;55.728;38.022;2023-04-15T11:32:22;100886.91;;;20.49;18.31
75072;BME280;63651;55.728;38.022;2023-04-15T11:37:29;100859.91;;;20.39;19.21
75072;BME280;63651;55.728;38.022;2023-04-15T11:42:32;100877.53;;;20.50;18.41
75072;BME280;63651;55.728;38.022;2023-04-15T11:47:33;100875.88;;;20.49;18.76
75072;BME280;63651;55.728;38.022;2023-04-15T11:52:34;100876.72;;;20.49;18.76
75072;BME280;63651;55.728;38.022;2023-04-15T11:57:36;100857.16;;;20.51;19.27
75072;BME280;63651;55.728;38.022;2023-04-15T12:02:37;100862.19;;;20.54;19.29
75072;BME280;63651;55.728;38.022;2023-04-15T12:07:58;100827.09;;;20.31;19.51
75072;BME280;63651;55.728;38.022;2023-04-15T12:13:00;100847.31;;;20.55;18.77
75072;BME280;63651;55.728;38.022;2023-04-15T12:18:04;100840.34;;;20.40;19.20
75072;BME280;63651;55.728;38.022;2023-04-15T12:23:26;100858.81;;;20.52;19.38
75072;BME280;63651;55.728;38.022;2023-04-15T12:28:38;100824.22;;;20.37;19.17
75072;BME280;63651;55.728;38.022;2023-04-15T12:33:59;100837.47;;;20.47;18.77
75072;BME280;63651;55.728;38.022;2023-04-15T12:39:04;100846.34;;;20.49;19.16
75072;BME280;63651;55.728;38.022;2023-04-15T12:44:06;100845.50;;;20.49;18.88
75072;BME280;63651;55.728;38.022;2023-04-15T12:49:07;100830.50;;;20.44;19.69
75072;BME280;63651;55.728;38.022;2023-04-15T12:54:09;100825.53;;;20.35;19.38
75072;BME280;63651;55.728;38.022;2023-04-15T12:59:10;100833.16;;;19.49;15.57
75072;BME280;63651;55.728;38.022;2023-04-15T13:04:11;100818.50;;;18.82;15.63
75072;BME280;63651;55.728;38.022;2023-04-15T13:09:31;100832.69;;;19.71;18.16
75072;BME280;63651;55.728;38.022;2023-04-15T13:14:32;100822.28;;;19.73;18.66
75072;BME280;63651;55.728;38.022;2023-04-15T13:19:33;100825.75;;;19.68;19.00
75072;BME280;63651;55.728;38.022;2023-04-15T13:24:54;100832.38;;;19.79;19.01
75072;BME280;63651;55.728;38.022;2023-04-15T13:29:56;100821.47;;;19.84;20.37
75072;BME280;63651;55.728;38.022;2023-04-15T13:34:57;100824.84;;;19.86;21.51
75072;BME280;63651;55.728;38.022;2023-04-15T13:39:59;100819.97;;;20.00;21.93
75072;BME280;63651;55.728;38.022;2023-04-15T13:45:00;100829.31;;;19.99;21.47
75072;BME280;63651;55.728;38.022;2023-04-15T13:50:01;100828.25;;;20.00;21.34
75072;BME280;63651;55.728;38.022;2023-04-15T13:55:03;100847.38;;;19.53;36.73
75072;BME280;63651;55.728;38.022;2023-04-15T14:00:04;100846.31;;;19.47;38.47
75072;BME280;63651;55.728;38.022;2023-04-15T14:05:06;100843.41;;;19.42;40.72
75072;BME280;63651;55.728;38.022;2023-04-15T14:10:07;100836.31;;;19.35;40.12
75072;BME280;63651;55.728;38.022;2023-04-15T14:15:08;100809.97;;;19.39;39.05
75072;BME280;63651;55.728;38.022;2023-04-15T14:20:10;100838.91;;;19.48;43.22
75072;BME280;63651;55.728;38.022;2023-04-15T14:25:11;100833.50;;;19.60;40.42
75072;BME280;63651;55.728;38.022;2023-04-15T14:30:12;100828.69;;;19.85;40.33
75072;BME280;63651;55.728;38.022;2023-04-15T14:35:13;100838.47;;;20.11;39.33
75072;BME280;63651;55.728;38.022;2023-04-15T14:40:15;100826.25;;;20.30;36.77
75072;BME280;63651;55.728;38.022;2023-04-15T14:45:53;100831.94;;;20.59;36.16
75072;BME280;63651;55.728;38.022;2023-04-15T14:50:54;100828.38;;;20.82;35.79
75072;BME280;63651;55.728;38.022;2023-04-15T14:55:56;100830.50;;;21.03;34.54
75072;BME280;63651;55.728;38.022;2023-04-15T15:00:57;100816.16;;;21.18;33.52
75072;BME280;63651;55.728;38.022;2023-04-15T15:05:58;100820.47;;;21.37;31.85
75072;BME280;63651;55.728;38.022;2023-04-15T15:10:59;100802.06;;;21.43;28.91
75072;BME280;63651;55.728;38.022;2023-04-15T15:16:01;100813.72;;;21.73;29.12
75072;BME280;63651;55.728;38.022;2023-04-15T15:21:02;100811.63;;;21.80;26.94
75072;BME280;63651;55.728;38.022;2023-04-15T15:26:03;100812.66;;;21.91;26.82
75072;BME280;63651;55.728;38.022;2023-04-15T15:31:04;100813.66;;;22.13;26.54
75072;BME280;63651;55.728;38.022;2023-04-15T15:36:06;100827.25;;;22.15;25.31
75072;BME280;63651;55.728;38.022;2023-04-15T15:41:07;100812.63;;;22.02;24.38
75072;BME280;63651;55.728;38.022;2023-04-15T15:46:08;100817.00;;;22.15;21.72
75072;BME280;63651;55.728;38.022;2023-04-15T15:51:09;100810.13;;;22.34;20.31
75072;BME280;63651;55.728;38.022;2023-04-15T15:56:10;100785.97;;;22.30;20.86
75072;BME280;63651;55.728;38.022;2023-04-15T16:01:11;100806.34;;;22.41;21.22
75072;BME280;63651;55.728;38.022;2023-04-15T16:06:12;100822.13;;;22.23;20.03
75072;BME280;63651;55.728;38.022;2023-04-15T16:11:13;100814.31;;;21.92;20.84
75072;BME280;63651;55.728;38.022;2023-04-15T16:16:15;100815.03;;;21.70;19.44
75072;BME280;63651;55.728;38.022;2023-04-15T16:21:16;100825.47;;;21.52;18.99
75072;BME280;63651;55.728;38.022;2023-04-15T16:26:17;100830.34;;;21.33;19.09
75072;BME280;63651;55.728;38.022;2023-04-15T16:31:36;100828.78;;;21.14;19.03
75072;BME280;63651;55.728;38.022;2023-04-15T16:36:56;100821.25;;;20.97;19.11
75072;BME280;63651;55.728;38.022;2023-04-15T16:42:16;100832.44;;;20.91;19.08
75072;BME280;63651;55.728;38.022;2023-04-15T16:47:17;100827.63;;;20.74;18.65
75072;BME280;63651;55.728;38.022;2023-04-15T16:52:37;100840.47;;;20.69;18.50
75072;BME280;63651;55.728;38.022;2023-04-15T16:57:38;100828.09;;;20.60;18.10
75072;BME280;63651;55.728;38.022;2023-04-15T17:02:39;100837.09;;;20.55;17.92
75072;BME280;63651;55.728;38.022;2023-04-15T17:07:40;100850.06;;;20.43;18.24
75072;BME280;63651;55.728;38.022;2023-04-15T17:13:00;100832.97;;;20.34;17.65
75072;BME280;63651;55.728;38.022;2023-04-15T17:18:01;100848.72;;;19.92;17.91
75072;BME280;63651;55.728;38.022;2023-04-15T17:23:02;100849.78;;;18.88;18.01
75072;BME280;63651;55.728;38.022;2023-04-15T17:28:03;100856.56;;;18.67;17.39
75072;BME280;63651;55.728;38.022;2023-04-15T17:33:05;100858.47;;;18.42;17.34
75072;BME280;63651;55.728;38.022;2023-04-15T17:43:26;100853.31;;;16.53;16.44
75072;BME280;63651;55.728;38.022;2023-04-15T17:48:27;100873.56;;;16.06;15.75
75072;BME280;63651;55.728;38.022;2023-04-15T17:53:29;100846.31;;;15.78;16.82
75072;BME280;63651;55.728;38.022;2023-04-15T18:03:50;100872.63;;;15.25;16.72
75072;BME280;63651;55.728;38.022;2023-04-15T18:08:51;100887.34;;;14.83;16.49
75072;BME280;63651;55.728;38.022;2023-04-15T18:13:52;100888.56;;;16.30;18.29
75072;BME280;63651;55.728;38.022;2023-04-15T18:18:53;100872.94;;;16.77;18.44
75072;BME280;63651;55.728;38.022;2023-04-15T18:23:54;100877.78;;;17.01;19.14
75072;BME280;63651;55.728;38.022;2023-04-15T18:28:55;100877.53;;;17.16;19.47
75072;BME280;63651;55.728;38.022;2023-04-15T18:33:56;100842.72;;;17.10;19.25
75072;BME280;63651;55.728;38.022;2023-04-15T18:38:57;100863.06;;;17.40;19.30
75072;BME280;63651;55.728;38.022;2023-04-15T18:43:59;100865.78;;;17.47;18.93
75072;BME280;63651;55.728;38.022;2023-04-15T18:49:00;100874.44;;;17.50;20.67
75072;BME280;63651;55.728;38.022;2023-04-15T18:54:01;100875.25;;;17.57;21.11
75072;BME280;63651;55.728;38.022;2023-04-15T18:59:02;100891.56;;;17.52;21.70
75072;BME280;63651;55.728;38.022;2023-04-15T19:04:03;100885.38;;;17.64;21.51
75072;BME280;63651;55.728;38.022;2023-04-15T19:09:04;100873.75;;;17.62;21.49
75072;BME280;63651;55.728;38.022;2023-04-15T19:14:06;100889.25;;;17.94;31.58
75072;BME280;63651;55.728;38.022;2023-04-15T19:19:07;100896.44;;;17.44;31.82
75072;BME280;63651;55.728;38.022;2023-04-15T19:24:08;100899.47;;;17.29;31.90
75072;BME280;63651;55.728;38.022;2023-04-15T19:29:28;100892.78;;;17.05;32.35
75072;BME280;63651;55.728;38.022;2023-04-15T19:34:30;100874.84;;;16.83;32.65
75072;BME280;63651;55.728;38.022;2023-04-15T19:39:31;100899.75;;;16.88;33.52
75072;BME280;63651;55.728;38.022;2023-04-15T19:44:51;100901.44;;;16.89;33.50
75072;BME280;63651;55.728;38.022;2023-04-15T19:49:52;100911.16;;;16.72;33.83
75072;BME280;63651;55.728;38.022;2023-04-15T19:54:53;100918.97;;;16.68;33.70
75072;BME280;63651;55.728;38.022;2023-04-15T19:59:54;100914.50;;;16.60;34.75
75072;BME280;63651;55.728;38.022;2023-04-15T20:04:55;100927.38;;;16.60;33.84
75072;BME280;63651;55.728;38.022;2023-04-15T20:09:56;100926.13;;;16.62;34.21
75072;BME280;63651;55.728;38.022;2023-04-15T20:14:57;100931.19;;;16.52;32.62
75072;BME280;63651;55.728;38.022;2023-04-15T20:19:58;100926.75;;;16.51;32.32
75072;BME280;63651;55.728;38.022;2023-04-15T20:25:02;100940.25;;;16.53;32.98
75072;BME280;63651;55.728;38.022;2023-04-15T20:30:04;100935.41;;;16.48;32.33
75072;BME280;63651;55.728;38.022;2023-04-15T20:35:06;100931.41;;;16.44;32.29
75072;BME280;63651;55.728;38.022;2023-04-15T20:40:07;100948.06;;;16.43;32.25
75072;BME280;63651;55.728;38.022;2023-04-15T20:45:09;100940.47;;;16.38;31.62
75072;BME280;63651;55.728;38.022;2023-04-15T20:50:10;100959.66;;;16.38;30.80
75072;BME280;63651;55.728;38.022;2023-04-15T20:55:11;100954.81;;;16.33;30.57
75072;BME280;63651;55.728;38.022;2023-04-15T21:00:14;100922.06;;;16.12;29.94
75072;BME280;63651;55.728;38.022;2023-04-15T21:05:15;100964.31;;;16.38;29.50
75072;BME280;63651;55.728;38.022;2023-04-15T21:10:16;100933.06;;;16.19;29.26
75072;BME280;63651;55.728;38.022;2023-04-15T21:15:17;100972.09;;;16.41;29.47
75072;BME280;63651;55.728;38.022;2023-04-15T21:20:18;100960.72;;;16.37;28.12
75072;BME280;63651;55.728;38.022;2023-04-15T21:25:19;100959.03;;;16.36;28.38
75072;BME280;63651;55.728;38.022;2023-04-15T21:30:20;100974.00;;;16.40;26.97
75072;BME280;63651;55.728;38.022;2023-04-15T21:35:23;100965.13;;;16.38;26.47
75072;BME280;63651;55.728;38.022;2023-04-15T21:40:24;100956.69;;;16.33;26.00
75072;BME280;63651;55.728;38.022;2023-04-15T21:45:25;100978.66;;;16.46;25.41
75072;BME280;63651;55.728;38.022;2023-04-15T21:50:26;100974.84;;;16.41;25.17
75072;BME280;63651;55.728;38.022;2023-04-15T21:55:27;100986.25;;;16.51;25.08
75072;BME280;63651;55.728;38.022;2023-04-15T22:00:28;100965.16;;;16.45;24.26
75072;BME280;63651;55.728;38.022;2023-04-15T22:05:29;100985.00;;;16.53;24.08
75072;BME280;63651;55.728;38.022;2023-04-15T22:10:31;100990.06;;;16.56;23.93
75072;BME280;63651;55.728;38.022;2023-04-15T22:15:32;100984.16;;;16.53;23.38
75072;BME280;63651;55.728;38.022;2023-04-15T22:20:33;100978.66;;;16.46;22.84
75072;BME280;63651;55.728;38.022;2023-04-15T22:25:35;100993.84;;;16.49;22.91
75072;BME280;63651;55.728;38.022;2023-04-15T22:30:38;100996.19;;;16.52;22.84
75072;BME280;63651;55.728;38.022;2023-04-15T22:35:39;100993.22;;;16.53;22.47
75072;BME280;63651;55.728;38.022;2023-04-15T22:40:41;100998.50;;;16.48;22.02
75072;BME280;63651;55.728;38.022;2023-04-15T22:45:47;100977.78;;;16.32;22.10
75072;BME280;63651;55.728;38.022;2023-04-15T22:50:49;101001.88;;;16.50;21.63
75072;BME280;63651;55.728;38.022;2023-04-15T22:55:50;101008.41;;;16.49;21.73
75072;BME280;63651;55.728;38.022;2023-04-15T23:00:51;101008.41;;;16.49;21.68
75072;BME280;63651;55.728;38.022;2023-04-15T23:05:52;101005.22;;;16.39;21.31
75072;BME280;63651;55.728;38.022;2023-04-15T23:10:53;101018.75;;;16.47;21.26
75072;BME280;63651;55.728;38.022;2023-04-15T23:15:54;101027.41;;;16.51;21.04
75072;BME280;63651;55.728;38.022;2023-04-15T23:20:55;101001.63;;;16.32;20.99
75072;BME280;63651;55.728;38.022;2023-04-15T23:25:56;101030.97;;;16.45;20.59
75072;BME280;63651;55.728;38.022;2023-04-15T23:30:58;101012.59;;;16.32;20.73
75072;BME280;63651;55.728;38.022;2023-04-15T23:35:59;101018.06;;;16.25;20.65
75072;BME280;63651;55.728;38.022;2023-04-15T23:41:01;101036.44;;;16.38;20.51
75072;BME280;63651;55.728;38.022;2023-04-15T23:46:02;101027.78;;;16.28;20.49
75072;BME280;63651;55.728;38.022;2023-04-15T23:51:03;101047.19;;;16.33;20.41
75072;BME280;63651;55.728;38.022;2023-04-15T23:56:05;101054.56;;;16.32;20.15
